sensor_id;sensor_type;location;lat;lon;timestamp;pressure;altitude;pressure_sealevel;temperature;humidity
39455;BME280;25155;41.890;23.446;2022-09-19T00:00:44;91943.94;;;7.20;56.81
39455;BME280;25155;41.890;23.446;2022-09-19T00:03:12;91931.41;;;7.12;56.91
39455;BME280;25155;41.890;23.446;2022-09-19T00:05:40;91932.97;;;7.13;56.91
39455;BME280;25155;41.890;23.446;2022-09-19T00:08:08;91937.66;;;7.16;57.26
39455;BME280;25155;41.890;23.446;2022-09-19T00:10:40;91919.09;;;7.02;56.82
39455;BME280;25155;41.890;23.446;2022-09-19T00:13:08;91918.16;;;6.92;58.08
39455;BME280;25155;41.890;23.446;2022-09-19T00:15:46;91946.53;;;6.98;58.28
39455;BME280;25155;41.890;23.446;2022-09-19T00:18:14;91916.78;;;6.84;57.46
39455;BME280;25155;41.890;23.446;2022-09-19T00:20:42;91934.47;;;6.87;59.01
39455;BME280;25155;41.890;23.446;2022-09-19T00:23:11;91941.00;;;6.73;59.38
39455;BME280;25155;41.890;23.446;2022-09-19T00:26:04;91942.81;;;6.55;59.78
39455;BME280;25155;41.890;23.446;2022-09-19T00:28:32;91928.53;;;6.53;59.61
39455;BME280;25155;41.890;23.446;2022-09-19T00:31:02;91928.06;;;6.56;58.93
39455;BME280;25155;41.890;23.446;2022-09-19T00:33:30;91925.78;;;6.59;59.19
39455;BME280;25155;41.890;23.446;2022-09-19T00:35:58;91913.31;;;6.39;59.74
39455;BME280;25155;41.890;23.446;2022-09-19T00:38:29;91934.81;;;6.40;59.52
39455;BME280;25155;41.890;23.446;2022-09-19T00:40:57;91932.47;;;6.38;59.45
39455;BME280;25155;41.890;23.446;2022-09-19T00:43:43;91908.94;;;6.23;58.93
39455;BME280;25155;41.890;23.446;2022-09-19T00:46:12;91923.94;;;6.38;58.78
39455;BME280;25155;41.890;23.446;2022-09-19T00:48:40;91931.69;;;6.38;58.49
39455;BME280;25155;41.890;23.446;2022-09-19T00:51:11;91925.75;;;6.37;58.92
39455;BME280;25155;41.890;23.446;2022-09-19T00:53:40;91913.50;;;6.16;59.51
39455;BME280;25155;41.890;23.446;2022-09-19T00:56:08;91902.00;;;5.95;59.36
39455;BME280;25155;41.890;23.446;2022-09-19T00:58:39;91915.59;;;6.02;59.05
39455;BME280;25155;41.890;23.446;2022-09-19T01:01:07;91914.91;;;6.06;58.63
39455;BME280;25155;41.890;23.446;2022-09-19T01:03:36;91905.56;;;6.05;58.86
39455;BME280;25155;41.890;23.446;2022-09-19T01:06:11;91904.53;;;6.06;59.04
39455;BME280;25155;41.890;23.446;2022-09-19T01:09:13;91891.88;;;5.93;59.09
39455;BME280;25155;41.890;23.446;2022-09-19T01:11:58;91910.19;;;6.03;59.07
39455;BME280;25155;41.890;23.446;2022-09-19T01:14:40;91913.31;;;6.05;58.81
39455;BME280;25155;41.890;23.446;2022-09-19T01:17:15;91917.53;;;5.95;61.92
39455;BME280;25155;41.890;23.446;2022-09-19T01:23:25;91920.81;;;5.73;60.71
39455;BME280;25155;41.890;23.446;2022-09-19T01:26:05;91903.84;;;5.65;60.02
39455;BME280;25155;41.890;23.446;2022-09-19T01:28:38;91914.06;;;5.72;60.45
39455;BME280;25155;41.890;23.446;2022-09-19T01:31:10;91899.13;;;5.62;61.69
39455;BME280;25155;41.890;23.446;2022-09-19T01:33:49;91906.91;;;5.62;61.36
39455;BME280;25155;41.890;23.446;2022-09-19T01:36:20;91904.84;;;5.64;61.58
39455;BME280;25155;41.890;23.446;2022-09-19T01:38:52;91897.44;;;5.68;60.97
39455;BME280;25155;41.890;23.446;2022-09-19T01:41:23;91899.00;;;5.69;60.86
39455;BME280;25155;41.890;23.446;2022-09-19T01:43:51;91861.88;;;5.46;61.55
39455;BME280;25155;41.890;23.446;2022-09-19T01:46:25;91901.25;;;5.65;61.99
39455;BME280;25155;41.890;23.446;2022-09-19T01:49:02;91908.31;;;5.53;62.56
39455;BME280;25155;41.890;23.446;2022-09-19T01:51:37;91905.38;;;5.49;62.46
39455;BME280;25155;41.890;23.446;2022-09-19T01:54:33;91898.66;;;5.48;61.91
39455;BME280;25155;41.890;23.446;2022-09-19T01:57:14;91905.63;;;5.48;61.40
39455;BME280;25155;41.890;23.446;2022-09-19T01:59:53;91907.66;;;5.46;61.79
39455;BME280;25155;41.890;23.446;2022-09-19T02:02:34;91911.03;;;5.46;61.48
39455;BME280;25155;41.890;23.446;2022-09-19T02:05:08;91915.97;;;5.48;61.14
39455;BME280;25155;41.890;23.446;2022-09-19T02:07:42;91897.34;;;5.34;61.38
39455;BME280;25155;41.890;23.446;2022-09-19T02:10:17;91906.16;;;5.33;61.30
39455;BME280;25155;41.890;23.446;2022-09-19T02:12:47;91912.00;;;5.28;61.38
39455;BME280;25155;41.890;23.446;2022-09-19T02:15:22;91914.59;;;5.28;61.84
39455;BME280;25155;41.890;23.446;2022-09-19T02:17:58;91909.88;;;5.25;61.29
39455;BME280;25155;41.890;23.446;2022-09-19T02:20:29;91912.13;;;5.22;61.39
39455;BME280;25155;41.890;23.446;2022-09-19T02:23:04;91913.72;;;5.11;61.11
39455;BME280;25155;41.890;23.446;2022-09-19T02:25:34;91914.41;;;5.06;61.44
39455;BME280;25155;41.890;23.446;2022-09-19T02:28:05;91911.38;;;5.09;61.10
39455;BME280;25155;41.890;23.446;2022-09-19T02:30:36;91910.59;;;5.09;61.56
39455;BME280;25155;41.890;23.446;2022-09-19T02:33:04;91917.56;;;5.08;61.41
39455;BME280;25155;41.890;23.446;2022-09-19T02:35:40;91922.97;;;5.07;61.66
39455;BME280;25155;41.890;23.446;2022-09-19T02:38:18;91916.22;;;5.06;61.24
39455;BME280;25155;41.890;23.446;2022-09-19T02:40:53;91923.75;;;5.07;61.19
39455;BME280;25155;41.890;23.446;2022-09-19T02:43:29;91919.25;;;5.03;61.19
39455;BME280;25155;41.890;23.446;2022-09-19T02:46:07;91927.69;;;5.10;61.71
39455;BME280;25155;41.890;23.446;2022-09-19T02:48:42;91909.94;;;5.02;61.29
39455;BME280;25155;41.890;23.446;2022-09-19T02:51:13;91920.94;;;5.09;61.43
39455;BME280;25155;41.890;23.446;2022-09-19T02:53:46;91928.47;;;5.10;61.31
39455;BME280;25155;41.890;23.446;2022-09-19T02:56:15;91925.44;;;5.13;61.05
39455;BME280;25155;41.890;23.446;2022-09-19T02:58:46;91919.13;;;5.09;61.23
39455;BME280;25155;41.890;23.446;2022-09-19T03:01:20;91896.56;;;4.93;61.04
39455;BME280;25155;41.890;23.446;2022-09-19T03:03:52;91934.19;;;5.12;60.71
39455;BME280;25155;41.890;23.446;2022-09-19T03:06:40;91932.28;;;5.08;60.98
39455;BME280;25155;41.890;23.446;2022-09-19T03:09:11;91926.78;;;5.04;60.77
39455;BME280;25155;41.890;23.446;2022-09-19T03:11:43;91928.03;;;5.02;61.17
39455;BME280;25155;41.890;23.446;2022-09-19T03:14:14;91928.28;;;5.00;61.24
39455;BME280;25155;41.890;23.446;2022-09-19T03:16:45;91925.00;;;4.93;61.11
39455;BME280;25155;41.890;23.446;2022-09-19T03:19:15;91923.34;;;4.87;61.04
39455;BME280;25155;41.890;23.446;2022-09-19T03:21:42;91935.56;;;4.91;60.86
39455;BME280;25155;41.890;23.446;2022-09-19T03:24:10;91927.06;;;4.79;60.93
39455;BME280;25155;41.890;23.446;2022-09-19T03:26:38;91922.78;;;4.73;60.80
39455;BME280;25155;41.890;23.446;2022-09-19T03:29:07;91936.16;;;4.81;61.16
39455;BME280;25155;41.890;23.446;2022-09-19T03:31:35;91942.13;;;4.82;60.71
39455;BME280;25155;41.890;23.446;2022-09-19T03:34:04;91935.16;;;4.71;60.79
39455;BME280;25155;41.890;23.446;2022-09-19T03:36:32;91940.34;;;4.71;60.79
39455;BME280;25155;41.890;23.446;2022-09-19T03:39:00;91929.78;;;4.60;61.00
39455;BME280;25155;41.890;23.446;2022-09-19T03:41:29;91935.63;;;4.68;61.27
39455;BME280;25155;41.890;23.446;2022-09-19T03:43:58;91943.47;;;4.73;61.05
39455;BME280;25155;41.890;23.446;2022-09-19T03:46:28;91957.88;;;4.69;61.20
39455;BME280;25155;41.890;23.446;2022-09-19T03:48:57;91930.69;;;4.54;61.21
39455;BME280;25155;41.890;23.446;2022-09-19T03:51:28;91953.38;;;4.64;61.40
39455;BME280;25155;41.890;23.446;2022-09-19T03:53:56;91946.84;;;4.61;61.27
39455;BME280;25155;41.890;23.446;2022-09-19T03:56:24;91943.72;;;4.59;61.54
39455;BME280;25155;41.890;23.446;2022-09-19T03:58:51;91948.09;;;4.59;61.61
39455;BME280;25155;41.890;23.446;2022-09-19T04:01:18;91937.22;;;4.57;61.52
39455;BME280;25155;41.890;23.446;2022-09-19T04:03:45;91939.44;;;4.53;61.65
39455;BME280;25155;41.890;23.446;2022-09-19T04:06:13;91912.28;;;4.39;61.90
39455;BME280;25155;41.890;23.446;2022-09-19T04:08:42;91941.78;;;4.55;61.92
39455;BME280;25155;41.890;23.446;2022-09-19T04:11:09;91945.63;;;4.52;62.93
39455;BME280;25155;41.890;23.446;2022-09-19T04:13:37;91952.81;;;4.50;62.70
39455;BME280;25155;41.890;23.446;2022-09-19T04:16:05;91945.06;;;4.50;62.68
39455;BME280;25155;41.890;23.446;2022-09-19T04:18:33;91944.50;;;4.48;62.72
39455;BME280;25155;41.890;23.446;2022-09-19T04:21:01;91965.94;;;4.37;62.84
39455;BME280;25155;41.890;23.446;2022-09-19T04:23:28;91955.59;;;4.13;63.15
39455;BME280;25155;41.890;23.446;2022-09-19T04:25:57;91954.47;;;4.09;63.41
39455;BME280;25155;41.890;23.446;2022-09-19T04:28:26;91960.88;;;4.18;62.82
39455;BME280;25155;41.890;23.446;2022-09-19T04:30:53;91964.59;;;4.22;63.27
39455;BME280;25155;41.890;23.446;2022-09-19T04:33:21;91961.44;;;4.20;63.46
39455;BME280;25155;41.890;23.446;2022-09-19T04:35:49;91975.59;;;4.30;63.48
39455;BME280;25155;41.890;23.446;2022-09-19T04:38:17;91970.88;;;4.27;64.26
39455;BME280;25155;41.890;23.446;2022-09-19T04:40:46;91968.81;;;4.17;64.14
39455;BME280;25155;41.890;23.446;2022-09-19T04:43:17;91973.00;;;4.18;64.02
39455;BME280;25155;41.890;23.446;2022-09-19T04:45:45;91970.31;;;4.24;63.97
39455;BME280;25155;41.890;23.446;2022-09-19T04:48:15;91933.81;;;4.09;63.43
39455;BME280;25155;41.890;23.446;2022-09-19T04:50:46;91973.44;;;4.38;63.47
39455;BME280;25155;41.890;23.446;2022-09-19T04:53:16;91966.75;;;4.49;63.32
39455;BME280;25155;41.890;23.446;2022-09-19T04:55:48;91968.88;;;4.52;63.03
39455;BME280;25155;41.890;23.446;2022-09-19T04:58:19;91963.25;;;4.55;63.35
39455;BME280;25155;41.890;23.446;2022-09-19T05:00:51;91960.34;;;4.64;63.18
39455;BME280;25155;41.890;23.446;2022-09-19T05:03:25;91965.03;;;4.67;63.12
39455;BME280;25155;41.890;23.446;2022-09-19T05:05:57;91972.44;;;4.75;62.93
39455;BME280;25155;41.890;23.446;2022-09-19T05:08:26;91971.78;;;4.79;63.11
39455;BME280;25155;41.890;23.446;2022-09-19T05:10:55;91978.63;;;4.86;62.81
39455;BME280;25155;41.890;23.446;2022-09-19T05:13:26;91969.28;;;4.85;63.09
39455;BME280;25155;41.890;23.446;2022-09-19T05:15:55;91945.25;;;4.84;63.46
39455;BME280;25155;41.890;23.446;2022-09-19T05:18:23;91960.06;;;5.01;63.13
39455;BME280;25155;41.890;23.446;2022-09-19T05:20:52;91962.16;;;5.15;63.04
39455;BME280;25155;41.890;23.446;2022-09-19T05:23:20;91960.47;;;5.21;62.83
39455;BME280;25155;41.890;23.446;2022-09-19T05:25:48;91963.81;;;5.33;62.82
39455;BME280;25155;41.890;23.446;2022-09-19T05:28:19;91962.91;;;5.40;63.16
39455;BME280;25155;41.890;23.446;2022-09-19T05:30:49;91958.38;;;5.47;62.90
39455;BME280;25155;41.890;23.446;2022-09-19T05:33:20;91953.63;;;5.55;62.99
39455;BME280;25155;41.890;23.446;2022-09-19T05:35:52;91960.53;;;5.67;63.04
39455;BME280;25155;41.890;23.446;2022-09-19T05:38:20;91969.28;;;5.78;63.10
39455;BME280;25155;41.890;23.446;2022-09-19T05:40:50;91967.88;;;5.87;62.93
39455;BME280;25155;41.890;23.446;2022-09-19T05:43:18;91965.16;;;5.94;63.28
39455;BME280;25155;41.890;23.446;2022-09-19T05:45:46;91959.06;;;6.00;63.44
39455;BME280;25155;41.890;23.446;2022-09-19T05:48:16;91962.13;;;6.14;63.63
39455;BME280;25155;41.890;23.446;2022-09-19T05:50:45;91959.63;;;6.19;63.57
39455;BME280;25155;41.890;23.446;2022-09-19T05:53:14;91961.75;;;6.22;63.69
39455;BME280;25155;41.890;23.446;2022-09-19T05:55:59;91970.16;;;6.29;63.48
39455;BME280;25155;41.890;23.446;2022-09-19T05:58:27;91973.91;;;6.38;63.45
39455;BME280;25155;41.890;23.446;2022-09-19T06:00:54;91963.94;;;6.47;63.59
39455;BME280;25155;41.890;23.446;2022-09-19T06:03:24;91974.47;;;6.57;63.57
39455;BME280;25155;41.890;23.446;2022-09-19T06:05:51;91972.97;;;6.61;63.27
39455;BME280;25155;41.890;23.446;2022-09-19T06:08:20;91967.16;;;6.71;62.98
39455;BME280;25155;41.890;23.446;2022-09-19T06:10:49;91964.63;;;6.76;63.21
39455;BME280;25155;41.890;23.446;2022-09-19T06:13:18;91969.00;;;6.93;62.94
39455;BME280;25155;41.890;23.446;2022-09-19T06:15:46;91977.47;;;7.05;63.17
39455;BME280;25155;41.890;23.446;2022-09-19T06:18:14;91965.66;;;7.14;62.83
39455;BME280;25155;41.890;23.446;2022-09-19T06:20:44;91967.41;;;7.31;62.90
39455;BME280;25155;41.890;23.446;2022-09-19T06:23:12;91966.28;;;7.44;62.73
39455;BME280;25155;41.890;23.446;2022-09-19T06:25:39;91957.72;;;7.43;62.43
39455;BME280;25155;41.890;23.446;2022-09-19T06:28:09;91964.50;;;7.49;61.50
39455;BME280;25155;41.890;23.446;2022-09-19T06:30:38;91960.41;;;7.53;61.03
39455;BME280;25155;41.890;23.446;2022-09-19T06:33:06;91962.56;;;7.62;61.04
39455;BME280;25155;41.890;23.446;2022-09-19T06:35:34;91956.47;;;7.73;61.34
39455;BME280;25155;41.890;23.446;2022-09-19T06:38:04;91945.31;;;7.78;61.72
39455;BME280;25155;41.890;23.446;2022-09-19T06:40:34;91950.97;;;7.97;61.66
39455;BME280;25155;41.890;23.446;2022-09-19T06:43:04;91948.50;;;8.12;61.14
39455;BME280;25155;41.890;23.446;2022-09-19T06:45:34;91948.91;;;8.26;60.43
39455;BME280;25155;41.890;23.446;2022-09-19T06:48:04;91942.94;;;8.30;60.30
39455;BME280;25155;41.890;23.446;2022-09-19T06:50:32;91946.03;;;8.55;60.36
39455;BME280;25155;41.890;23.446;2022-09-19T06:52:59;91948.28;;;8.83;60.32
39455;BME280;25155;41.890;23.446;2022-09-19T06:55:29;91943.81;;;9.27;58.82
39455;BME280;25155;41.890;23.446;2022-09-19T06:57:57;91935.41;;;9.83;58.59
39455;BME280;25155;41.890;23.446;2022-09-19T07:00:27;91934.16;;;10.31;57.61
39455;BME280;25155;41.890;23.446;2022-09-19T07:02:59;91940.16;;;10.78;55.08
39455;BME280;25155;41.890;23.446;2022-09-19T07:05:27;91931.75;;;11.02;51.57
39455;BME280;25155;41.890;23.446;2022-09-19T07:08:00;91928.09;;;11.13;50.58
39455;BME280;25155;41.890;23.446;2022-09-19T07:10:30;91929.34;;;11.31;51.03
39455;BME280;25155;41.890;23.446;2022-09-19T07:12:59;91928.75;;;11.44;50.74
39455;BME280;25155;41.890;23.446;2022-09-19T07:15:31;91921.63;;;11.66;50.56
39455;BME280;25155;41.890;23.446;2022-09-19T07:17:59;91929.59;;;11.90;49.68
39455;BME280;25155;41.890;23.446;2022-09-19T07:20:28;91918.28;;;12.05;50.14
39455;BME280;25155;41.890;23.446;2022-09-19T07:23:03;91925.97;;;12.30;49.78
39455;BME280;25155;41.890;23.446;2022-09-19T07:25:33;91933.66;;;12.51;49.41
39455;BME280;25155;41.890;23.446;2022-09-19T07:28:02;91919.16;;;12.64;48.49
39455;BME280;25155;41.890;23.446;2022-09-19T07:30:32;91932.91;;;12.80;49.74
39455;BME280;25155;41.890;23.446;2022-09-19T07:33:02;91930.19;;;12.90;48.42
39455;BME280;25155;41.890;23.446;2022-09-19T07:35:32;91926.03;;;12.84;48.06
39455;BME280;25155;41.890;23.446;2022-09-19T07:38:00;91922.13;;;12.52;46.16
39455;BME280;25155;41.890;23.446;2022-09-19T07:40:27;91922.59;;;12.30;46.41
39455;BME280;25155;41.890;23.446;2022-09-19T07:42:59;91916.72;;;12.09;46.94
39455;BME280;25155;41.890;23.446;2022-09-19T07:45:28;91904.69;;;12.08;48.44
39455;BME280;25155;41.890;23.446;2022-09-19T07:47:55;91924.63;;;12.38;48.79
39455;BME280;25155;41.890;23.446;2022-09-19T07:50:23;91926.84;;;12.55;48.26
39455;BME280;25155;41.890;23.446;2022-09-19T07:52:58;91922.53;;;12.69;48.48
39455;BME280;25155;41.890;23.446;2022-09-19T07:55:26;91919.00;;;12.84;48.80
39455;BME280;25155;41.890;23.446;2022-09-19T07:57:55;91917.44;;;12.83;45.96
39455;BME280;25155;41.890;23.446;2022-09-19T08:00:26;91912.41;;;12.87;47.02
39455;BME280;25155;41.890;23.446;2022-09-19T08:02:55;91908.69;;;12.93;46.94
39455;BME280;25155;41.890;23.446;2022-09-19T08:05:23;91911.63;;;13.16;46.54
39455;BME280;25155;41.890;23.446;2022-09-19T08:07:51;91908.94;;;13.21;44.92
39455;BME280;25155;41.890;23.446;2022-09-19T08:10:19;91902.00;;;13.30;45.86
39455;BME280;25155;41.890;23.446;2022-09-19T08:12:48;91903.47;;;13.41;44.59
39455;BME280;25155;41.890;23.446;2022-09-19T08:15:17;91901.16;;;13.40;44.61
39455;BME280;25155;41.890;23.446;2022-09-19T08:17:56;91897.84;;;13.53;44.92
39455;BME280;25155;41.890;23.446;2022-09-19T08:20:24;91895.75;;;13.74;43.60
39455;BME280;25155;41.890;23.446;2022-09-19T08:22:55;91886.41;;;13.87;43.68
39455;BME280;25155;41.890;23.446;2022-09-19T08:25:24;91890.78;;;13.92;42.58
39455;BME280;25155;41.890;23.446;2022-09-19T08:27:52;91887.59;;;13.95;43.61
39455;BME280;25155;41.890;23.446;2022-09-19T08:30:19;91889.44;;;14.13;43.63
39455;BME280;25155;41.890;23.446;2022-09-19T08:32:48;91884.94;;;14.33;42.82
39455;BME280;25155;41.890;23.446;2022-09-19T08:35:19;91882.47;;;14.42;42.23
39455;BME280;25155;41.890;23.446;2022-09-19T08:37:53;91877.97;;;14.42;41.60
39455;BME280;25155;41.890;23.446;2022-09-19T08:40:25;91875.97;;;14.53;42.77
39455;BME280;25155;41.890;23.446;2022-09-19T08:43:00;91882.16;;;14.76;42.10
39455;BME280;25155;41.890;23.446;2022-09-19T08:45:41;91874.72;;;14.83;41.72
39455;BME280;25155;41.890;23.446;2022-09-19T08:48:20;91878.72;;;14.94;42.01
39455;BME280;25155;41.890;23.446;2022-09-19T08:50:56;91865.97;;;15.02;40.84
39455;BME280;25155;41.890;23.446;2022-09-19T08:53:28;91871.41;;;15.19;40.68
39455;BME280;25155;41.890;23.446;2022-09-19T08:55:58;91864.03;;;15.21;39.95
39455;BME280;25155;41.890;23.446;2022-09-19T08:58:29;91861.41;;;15.21;40.18
39455;BME280;25155;41.890;23.446;2022-09-19T09:01:00;91858.69;;;15.26;38.57
39455;BME280;25155;41.890;23.446;2022-09-19T09:03:37;91857.13;;;15.39;40.31
39455;BME280;25155;41.890;23.446;2022-09-19T09:06:19;91845.31;;;15.50;38.15
39455;BME280;25155;41.890;23.446;2022-09-19T09:08:56;91841.69;;;15.60;38.35
39455;BME280;25155;41.890;23.446;2022-09-19T09:11:35;91843.22;;;15.75;37.65
39455;BME280;25155;41.890;23.446;2022-09-19T09:14:14;91841.06;;;15.91;34.50
39455;BME280;25155;41.890;23.446;2022-09-19T09:16:56;91830.38;;;15.88;31.67
39455;BME280;25155;41.890;23.446;2022-09-19T09:19:45;91819.03;;;15.87;34.53
39455;BME280;25155;41.890;23.446;2022-09-19T09:22:20;91825.03;;;16.01;33.58
39455;BME280;25155;41.890;23.446;2022-09-19T09:24:55;91817.28;;;16.19;35.31
39455;BME280;25155;41.890;23.446;2022-09-19T09:27:30;91823.50;;;16.46;35.90
39455;BME280;25155;41.890;23.446;2022-09-19T09:30:04;91818.59;;;16.61;33.68
39455;BME280;25155;41.890;23.446;2022-09-19T09:32:43;91810.03;;;16.78;33.94
39455;BME280;25155;41.890;23.446;2022-09-19T09:35:22;91803.63;;;16.93;34.74
39455;BME280;25155;41.890;23.446;2022-09-19T09:37:57;91803.78;;;16.97;30.99
39455;BME280;25155;41.890;23.446;2022-09-19T09:40:36;91805.81;;;17.00;31.44
39455;BME280;25155;41.890;23.446;2022-09-19T09:43:18;91798.69;;;17.09;30.43
39455;BME280;25155;41.890;23.446;2022-09-19T09:45:47;91799.03;;;17.17;29.68
39455;BME280;25155;41.890;23.446;2022-09-19T09:48:20;91797.19;;;17.26;31.45
39455;BME280;25155;41.890;23.446;2022-09-19T09:51:04;91792.25;;;17.33;29.55
39455;BME280;25155;41.890;23.446;2022-09-19T09:53:49;91792.88;;;17.39;29.68
39455;BME280;25155;41.890;23.446;2022-09-19T09:56:26;91789.47;;;17.47;29.69
39455;BME280;25155;41.890;23.446;2022-09-19T09:59:27;91787.66;;;17.56;30.50
39455;BME280;25155;41.890;23.446;2022-09-19T10:02:22;91776.47;;;17.68;29.89
39455;BME280;25155;41.890;23.446;2022-09-19T10:05:12;91778.03;;;17.86;30.91
39455;BME280;25155;41.890;23.446;2022-09-19T10:07:48;91777.41;;;18.07;31.71
39455;BME280;25155;41.890;23.446;2022-09-19T10:10:27;91765.91;;;18.20;30.41
39455;BME280;25155;41.890;23.446;2022-09-19T10:12:59;91755.63;;;18.36;32.40
39455;BME280;25155;41.890;23.446;2022-09-19T10:15:30;91759.78;;;18.63;33.22
39455;BME280;25155;41.890;23.446;2022-09-19T10:18:02;91764.97;;;18.81;31.00
39455;BME280;25155;41.890;23.446;2022-09-19T10:20:36;91766.22;;;18.75;29.33
39455;BME280;25155;41.890;23.446;2022-09-19T10:23:12;91771.88;;;18.65;29.37
39455;BME280;25155;41.890;23.446;2022-09-19T10:25:43;91764.69;;;18.74;31.25
39455;BME280;25155;41.890;23.446;2022-09-19T10:28:25;91768.84;;;18.92;31.14
39455;BME280;25155;41.890;23.446;2022-09-19T10:30:57;91755.44;;;18.97;29.63
39455;BME280;25155;41.890;23.446;2022-09-19T10:33:27;91744.31;;;18.83;30.46
39455;BME280;25155;41.890;23.446;2022-09-19T10:36:06;91750.03;;;18.94;29.76
39455;BME280;25155;41.890;23.446;2022-09-19T10:38:52;91749.03;;;18.69;29.84
39455;BME280;25155;41.890;23.446;2022-09-19T10:41:28;91743.75;;;18.69;30.09
39455;BME280;25155;41.890;23.446;2022-09-19T10:43:57;91737.16;;;18.75;30.38
39455;BME280;25155;41.890;23.446;2022-09-19T10:46:28;91736.59;;;18.69;29.66
39455;BME280;25155;41.890;23.446;2022-09-19T10:48:58;91739.19;;;18.78;30.09
39455;BME280;25155;41.890;23.446;2022-09-19T10:51:31;91729.72;;;18.77;30.54
39455;BME280;25155;41.890;23.446;2022-09-19T10:54:00;91727.06;;;18.86;30.77
39455;BME280;25155;41.890;23.446;2022-09-19T10:56:40;91720.22;;;18.85;30.24
39455;BME280;25155;41.890;23.446;2022-09-19T10:59:25;91721.91;;;18.89;32.09
39455;BME280;25155;41.890;23.446;2022-09-19T11:02:18;91715.94;;;19.01;31.55
39455;BME280;25155;41.890;23.446;2022-09-19T11:04:54;91706.28;;;19.26;32.50
39455;BME280;25155;41.890;23.446;2022-09-19T11:07:28;91697.28;;;19.48;33.98
39455;BME280;25155;41.890;23.446;2022-09-19T11:09:57;91689.63;;;19.77;31.88
39455;BME280;25155;41.890;23.446;2022-09-19T11:12:37;91676.19;;;19.82;31.78
39455;BME280;25155;41.890;23.446;2022-09-19T11:15:12;91660.56;;;19.68;31.15
39455;BME280;25155;41.890;23.446;2022-09-19T11:17:53;91667.88;;;19.50;31.17
39455;BME280;25155;41.890;23.446;2022-09-19T11:20:34;91670.19;;;19.30;30.88
39455;BME280;25155;41.890;23.446;2022-09-19T11:23:23;91675.03;;;19.28;29.98
39455;BME280;25155;41.890;23.446;2022-09-19T11:26:02;91665.75;;;19.22;31.01
39455;BME280;25155;41.890;23.446;2022-09-19T11:28:43;91666.41;;;19.40;32.15
39455;BME280;25155;41.890;23.446;2022-09-19T11:31:20;91657.59;;;19.69;31.33
39455;BME280;25155;41.890;23.446;2022-09-19T11:33:56;91659.91;;;19.92;32.20
39455;BME280;25155;41.890;23.446;2022-09-19T11:36:37;91660.59;;;20.14;31.09
39455;BME280;25155;41.890;23.446;2022-09-19T11:39:15;91649.91;;;19.98;29.84
39455;BME280;25155;41.890;23.446;2022-09-19T11:41:56;91652.59;;;19.89;30.01
39455;BME280;25155;41.890;23.446;2022-09-19T11:44:41;91652.00;;;20.04;29.87
39455;BME280;25155;41.890;23.446;2022-09-19T11:47:30;91645.19;;;20.28;30.31
39455;BME280;25155;41.890;23.446;2022-09-19T11:50:25;91650.81;;;20.39;29.76
39455;BME280;25155;41.890;23.446;2022-09-19T11:53:13;91647.63;;;20.21;29.02
39455;BME280;25155;41.890;23.446;2022-09-19T11:55:49;91644.06;;;20.17;29.80
39455;BME280;25155;41.890;23.446;2022-09-19T11:58:26;91647.94;;;20.19;28.60
39455;BME280;25155;41.890;23.446;2022-09-19T12:01:05;91641.78;;;20.27;29.12
39455;BME280;25155;41.890;23.446;2022-09-19T12:03:52;91641.13;;;20.43;30.14
39455;BME280;25155;41.890;23.446;2022-09-19T12:06:45;91627.22;;;20.46;28.54
39455;BME280;25155;41.890;23.446;2022-09-19T12:09:22;91615.41;;;20.43;29.41
39455;BME280;25155;41.890;23.446;2022-09-19T12:11:56;91628.00;;;20.46;29.29
39455;BME280;25155;41.890;23.446;2022-09-19T12:14:27;91635.50;;;20.57;29.74
39455;BME280;25155;41.890;23.446;2022-09-19T12:17:04;91640.03;;;20.56;28.91
39455;BME280;25155;41.890;23.446;2022-09-19T12:19:38;91635.75;;;20.64;29.80
39455;BME280;25155;41.890;23.446;2022-09-19T12:22:12;91628.69;;;20.68;30.43
39455;BME280;25155;41.890;23.446;2022-09-19T12:24:43;91633.53;;;20.66;30.83
39455;BME280;25155;41.890;23.446;2022-09-19T12:27:26;91623.16;;;20.61;30.43
39455;BME280;25155;41.890;23.446;2022-09-19T12:30:00;91630.22;;;20.81;30.54
39455;BME280;25155;41.890;23.446;2022-09-19T12:32:36;91627.69;;;20.73;29.96
39455;BME280;25155;41.890;23.446;2022-09-19T12:35:16;91617.06;;;20.85;30.15
39455;BME280;25155;41.890;23.446;2022-09-19T12:37:53;91614.47;;;21.13;31.16
39455;BME280;25155;41.890;23.446;2022-09-19T12:40:28;91629.75;;;21.57;31.46
39455;BME280;25155;41.890;23.446;2022-09-19T12:43:06;91619.94;;;21.73;29.97
39455;BME280;25155;41.890;23.446;2022-09-19T12:45:44;91628.81;;;21.93;27.87
39455;BME280;25155;41.890;23.446;2022-09-19T12:48:21;91618.63;;;21.67;28.43
39455;BME280;25155;41.890;23.446;2022-09-19T12:50:56;91612.88;;;21.93;27.67
39455;BME280;25155;41.890;23.446;2022-09-19T12:53:32;91612.78;;;22.06;26.98
39455;BME280;25155;41.890;23.446;2022-09-19T12:56:03;91607.75;;;22.01;26.01
39455;BME280;25155;41.890;23.446;2022-09-19T12:58:38;91609.81;;;21.91;25.28
39455;BME280;25155;41.890;23.446;2022-09-19T13:01:17;91619.13;;;21.85;27.17
39455;BME280;25155;41.890;23.446;2022-09-19T13:03:51;91613.38;;;21.83;26.76
39455;BME280;25155;41.890;23.446;2022-09-19T13:06:23;91610.19;;;21.78;26.75
39455;BME280;25155;41.890;23.446;2022-09-19T13:08:54;91602.09;;;21.86;27.23
39455;BME280;25155;41.890;23.446;2022-09-19T13:11:32;91599.66;;;21.81;26.23
39455;BME280;25155;41.890;23.446;2022-09-19T13:14:09;91600.16;;;21.71;25.82
39455;BME280;25155;41.890;23.446;2022-09-19T13:16:40;91600.16;;;21.71;26.35
39455;BME280;25155;41.890;23.446;2022-09-19T13:19:35;91589.81;;;21.82;27.27
39455;BME280;25155;41.890;23.446;2022-09-19T13:22:21;91581.69;;;21.90;25.87
39455;BME280;25155;41.890;23.446;2022-09-19T13:25:02;91592.06;;;21.51;26.30
39455;BME280;25155;41.890;23.446;2022-09-19T13:27:34;91590.66;;;21.70;26.64
39455;BME280;25155;41.890;23.446;2022-09-19T13:30:02;91573.69;;;21.74;25.33